Flight Track Log - Related Links

Times and Time Zones

All times are in EST time to prevent confusion due to time zone crossing. See the N474RL flight status page for this flight to view local times or setup timezone preferences in your user account.

Time Position Orientation Groundspeed Altitude Reporting Facility
EST Latitude Longitude Course Direction KTS MPH feet Rate Location/Type
Sat 11:12:44 AM 28.5493 -81.3225 68° East 102 117 200  Level FlightAware ADS-B
Sat 11:13:05 AM 28.5549 -81.3121 58° Northeast 120 138 500 878 Climbing FlightAware ADS-B
Sat 11:13:25 AM 28.5643 -81.3027 41° Northeast 124 143 800 1,024 Climbing FlightAware ADS-B
Sat 11:13:46 AM 28.5734 -81.2941 40° Northeast 122 140 1,200 732 Climbing FlightAware ADS-B
Sat 11:14:06 AM 28.5843 -81.2872 29° Northeast 156 180 1,300 150 Climbing FlightAware ADS-B
Sat 11:14:26 AM 28.5996 -81.2896 352° North 173 199 1,300  Level FlightAware ADS-B
Sat 11:14:47 AM 28.6171 -81.2937 348° North 182 209 1,300  Level FlightAware ADS-B
Sat 11:15:07 AM 28.6330 -81.2975 348° North 182 209 1,300 585 Level FlightAware ADS-B
Sat 11:15:28 AM 28.6493 -81.3017 347° North 166 191 1,700 769 Climbing FlightAware ADS-B (KSFB)
Sat 11:15:46 AM 28.6637 -81.3053 347° North 175 201 1,800 150 Climbing FlightAware ADS-B (KSFB)
Sat 11:16:08 AM 28.6799 -81.3132 337° Northwest 188 216 1,800 -143 Level FlightAware ADS-B
Sat 11:16:28 AM 28.6962 -81.3224 333° Northwest 190 219 1,700  Descending FlightAware ADS-B (KSFB)
Sat 11:16:33 AM 28.7003 -81.3228 355° North 185 213 1,800 286 Climbing FlightAware ADS-B
Sat 11:16:49 AM 28.7128 -81.3179 19° North 178 205 1,800  Level FlightAware ADS-B (KSFB)
Sat 11:17:08 AM 28.7268 -81.3099 26° Northeast 178 205 1,800  Level FlightAware ADS-B (KSFB)
Sat 11:17:13 AM 28.7305 -81.3079 26° Northeast 178 205 1,800  Level FlightAware ADS-B
Sat 11:17:28 AM 28.7414 -81.3017 26° Northeast 178 205 1,800 529 Level FlightAware ADS-B (KSFB)
Sat 11:17:47 AM 28.7541 -81.2948 26° Northeast 161 185 2,100 1,050 Climbing FlightAware ADS-B
Sat 11:18:08 AM 28.7679 -81.2875 25° Northeast 149 171 2,500 1,000 Climbing FlightAware ADS-B
Sat 11:18:29 AM 28.7811 -81.2808 24° Northeast 147 169 2,800 800 Climbing FlightAware ADS-B (KSFB)
Sat 11:18:38 AM 28.7878 -81.2773 25° Northeast 148 170 2,900 800 Climbing FlightAware ADS-B
Sat 11:18:59 AM 28.7987 -81.2717 24° Northeast 151 174 3,200 774 Climbing FlightAware ADS-B (KSFB)
Sat 11:19:09 AM 28.8081 -81.2710 North 158 182 3,300 857 Climbing FlightAware ADS-B
Sat 11:19:27 AM 28.8110 -81.2717 349° North 157 181 3,600 769 Climbing FlightAware ADS-B (KSFB)
Sat 11:19:48 AM 28.8308 -81.2761 349° North 158 182 3,800 769 Climbing FlightAware ADS-B (KSFB)
Sat 11:20:06 AM 28.8487 -81.2800 349° North 158 182 4,100 750 Climbing FlightAware ADS-B (KSFB)
Sat 11:20:28 AM 28.8647 -81.2838 348° North 161 185 4,300 600 Climbing FlightAware ADS-B (KSFB)
Sat 11:20:46 AM 28.8764 -81.2905 333° Northwest 162 186 4,500 985 Climbing FlightAware ADS-B (KSFB)
Sat 11:21:35 AM 28.9076 -81.3090 333° Northwest 150 173 5,400 1,014 Climbing FlightAware ADS-B (KSFB)
Sat 11:21:57 AM 28.9180 -81.3151 333° Northwest 149 171 5,700 933 Climbing FlightAware ADS-B (KSFB)
Sat 11:22:20 AM 28.9331 -81.3241 333° Northwest 147 169 6,100 933 Climbing FlightAware ADS-B
Sat 11:22:42 AM 28.9487 -81.3321 336° Northwest 144 166 6,400 769 Climbing FlightAware ADS-B
Sat 11:22:59 AM 28.9551 -81.3327 355° North 144 166 6,600 500 Climbing FlightAware ADS-B (KSFB)
Sat 11:23:18 AM 28.9709 -81.3345 354° North 159 183 6,700 125 Climbing FlightAware ADS-B (KSFB)
Sat 11:23:47 AM 28.9955 -81.3377 354° North 177 204 6,700  Level FlightAware ADS-B
Sat 11:24:07 AM 29.0125 -81.3399 353° North 182 209 6,700  Level FlightAware ADS-B
Sat 11:24:27 AM 29.0304 -81.3423 353° North 186 214 6,700  Level FlightAware ADS-B
Sat 11:24:51 AM 29.0482 -81.3446 354° North 190 219 6,700  Level FlightAware ADS-B
Sat 11:25:11 AM 29.0691 -81.3472 354° North 190 219 6,700  Level FlightAware ADS-B
Sat 11:26:53 AM 29.1585 -81.3586 354° North 191 220 6,700  Level FlightAware ADS-B
Sat 11:27:11 AM 29.1702 -81.3601 354° North 191 220 6,700  Level FlightAware ADS-B
Sat 11:27:31 AM 29.1908 -81.3627 354° North 191 220 6,700  Level FlightAware ADS-B
Sat 11:28:13 AM 29.2292 -81.3676 354° North 191 220 6,700  Level FlightAware ADS-B
Sat 11:28:33 AM 29.2469 -81.3698 354° North 191 220 6,700  Level FlightAware ADS-B
Sat 11:28:54 AM 29.2612 -81.3716 354° North 191 220 6,700  Level FlightAware ADS-B
Sat 11:30:16 AM 29.3369 -81.3813 354° North 191 220 6,700  Level FlightAware ADS-B
Sat 11:30:31 AM 29.3506 -81.3830 354° North 192 221 6,700  Level FlightAware ADS-B
Sat 11:30:56 AM 29.3555 -81.3836 354° North 192 221 6,700 286 Level FlightAware ADS-B
Sat 11:31:34 AM 29.3997 -81.3908 354° North 192 221 7,000 209 Climbing Jacksonville Center
Sat 11:32:22 AM 29.4456 -81.3997 350° North 191 220 7,000  Level Jacksonville Center
Sat 11:33:29 AM 29.5022 -81.4058 355° North 191 220 7,000  Level Jacksonville Center
Sat 11:34:30 AM 29.5564 -81.4122 354° North 191 220 7,000  Level Jacksonville Center
Sat 11:34:44 AM 29.5689 -81.4144 351° North 190 219 7,000  Level Jacksonville Center
Sat 11:35:39 AM 29.6192 -81.4208 354° North 191 220 7,000  Level Jacksonville Center
Sat 11:36:27 AM 29.6589 -81.4250 355° North 192 221 7,000  Level Jacksonville Center
Sat 11:37:34 AM 29.7194 -81.4314 355° North 189 217 7,000  Level Jacksonville Center
Sat 11:38:29 AM 29.7675 -81.4403 351° North 186 214 7,000  Level Jacksonville Center
Sat 11:39:31 AM 29.8200 -81.4442 356° North 182 209 7,000  Level Jacksonville Center
Sat 11:40:31 AM 29.8722 -81.4506 354° North 186 214 7,000  Level Jacksonville Center
Sat 11:41:32 AM 29.9203 -81.4572 353° North 188 216 7,000  Level Jacksonville Center
Sat 11:42:33 AM 29.9725 -81.4658 352° North 185 213 7,000  Level Jacksonville Center
Sat 11:43:34 AM 30.0247 -81.4722 354° North 183 211 7,000  Level Jacksonville Center
Sat 11:44:41 AM 30.0833 -81.4786 355° North 186 214 7,000  Level Jacksonville Center
Sat 11:45:36 AM 30.1314 -81.4853 353° North 192 221 7,000  Level Jacksonville Center
Sat 11:46:43 AM 30.1878 -81.4939 352° North 191 220 7,000  Level Jacksonville Center
Sat 11:47:38 AM 30.2358 -81.4981 356° North 190 219 7,000  Level Jacksonville Center
Sat 11:48:45 AM 30.2967 -81.5044 355° North 184 212 7,000  Level Jacksonville Center
Sat 11:49:45 AM 30.3489 -81.5133 352° North 188 216 7,000  Level Jacksonville Center
Sat 11:50:47 AM 30.4011 -81.5247 349° North 186 214 7,000  Level Jacksonville Center
Sat 11:51:47 AM 30.4514 -81.5311 354° North 191 220 7,000  Level Jacksonville Center
Sat 11:52:49 AM 30.5078 -81.5447 348° North 193 222 7,000  Level Jacksonville Center
Sat 11:53:50 AM 30.5622 -81.5561 350° North 192 221 7,000  Level Jacksonville Center
Sat 11:54:51 AM 30.6125 -81.5625 354° North 193 222 7,000  Level Jacksonville Center
Sat 11:55:51 AM 30.6689 -81.5739 350° North 194 223 7,000  Level Jacksonville Center
Sat 11:56:55 AM 30.7211 -81.5853 349° North 199 229 7,000  Level Jacksonville Center
Sat 11:57:55 AM 30.7756 -81.5942 352° North 199 229 7,000 -50 Level Jacksonville Center
Sat 11:58:55 AM 30.8278 -81.6031 352° North 199 229 6,900 -50 Descending Jacksonville Center
Sat 11:59:55 AM 30.8803 -81.6144 349° North 199 229 6,900  Level Jacksonville Center
Sat 12:00:55 PM 30.9347 -81.6233 352° North 199 229 6,900  Level Jacksonville Center
Sat 12:01:55 PM 30.9828 -81.6325 351° North 193 222 6,900  Level Jacksonville Center
Sat 12:02:55 PM 31.0331 -81.6439 349° North 183 211 6,900  Level Jacksonville Center
Sat 12:03:55 PM 31.0853 -81.6531 351° North 183 211 6,900 50 Level Jacksonville Center
Sat 12:04:55 PM 31.1375 -81.6619 352° North 177 204 7,000 50 Climbing Jacksonville Center
Sat 12:05:55 PM 31.1897 -81.6733 349° North 182 209 7,000  Level Jacksonville Center
Sat 12:06:55 PM 31.2358 -81.6803 353° North 182 209 7,000  Level Jacksonville Center
Sat 12:07:55 PM 31.2861 -81.6892 351° North 183 211 7,000  Level Jacksonville Center
Sat 12:08:55 PM 31.3425 -81.7006 350° North 183 211 7,000  Level Jacksonville Center
Sat 12:09:55 PM 31.3947 -81.7097 351° North 183 211 7,000  Level Jacksonville Center
Sat 12:10:55 PM 31.4469 -81.7211 349° North 183 211 7,000  Level Jacksonville Center
Sat 12:11:55 PM 31.4931 -81.7303 350° North 183 211 7,000  Level Jacksonville Center
Sat 12:12:55 PM 31.5475 -81.7394 352° North 183 211 7,000 -50 Level Jacksonville Center
Sat 12:13:55 PM 31.6061 -81.7508 351° North 183 211 6,900 -50 Descending Jacksonville Center
Sat 12:14:55 PM 31.6561 -81.7625 349° North 183 211 6,900  Level Jacksonville Center
Sat 12:15:55 PM 31.7106 -81.7717 352° North 183 211 6,900 50 Level Jacksonville Center
Sat 12:16:55 PM 31.7567 -81.7808 350° North 188 216 7,000 400 Climbing Jacksonville Center
Sat 12:17:55 PM 31.8025 -81.7900 350° North 175 201 7,700 500 Climbing Jacksonville Center
Sat 12:18:55 PM 31.8550 -81.7992 352° North 162 186 8,000 150 Climbing Jacksonville Center
Sat 12:19:55 PM 31.9050 -81.8108 349° North 173 199 8,000  Level Jacksonville Center
Sat 12:21:19 PM 31.9783 -81.8247 351° North 209 241 8,000 -42 Level Jacksonville Center
Sat 12:22:19 PM 32.0328 -81.8339 352° North 212 244 7,900 -50 Descending Jacksonville Center
Sat 12:23:19 PM 32.0850 -81.8456 349° North 196 226 7,900  Level Jacksonville Center
Sat 12:24:19 PM 32.1331 -81.8547 351° North 196 226 7,900 50 Level Jacksonville Center
Sat 12:25:19 PM 32.1875 -81.8639 352° North 191 220 8,000 39 Climbing Jacksonville Center
Sat 12:26:51 PM 32.2661 -81.8797 348° North 198 228 8,000  Level Atlanta Center
Sat 12:27:00 PM 32.2430 -81.8775 348° North  Level FlightAware Approximate
Sat 12:28:51 PM 32.3708 -81.8969 352° North 198 228 8,000  Level Atlanta Center
Sat 12:29:51 PM 32.4253 -81.9053 353° North 198 228 8,000  Level Atlanta Center
Sat 12:30:51 PM 32.4756 -81.9189 347° North 193 222 8,000  Level Atlanta Center
Sat 12:31:51 PM 32.5281 -81.9300 351° North 193 222 8,000  Level Atlanta Center
Sat 12:32:00 PM 32.5321 -81.9298 351° North  Level FlightAware Approximate
Sat 12:32:51 PM 32.5803 -81.9411 350° North 193 222 8,000  Level Atlanta Center
Sat 12:34:51 PM 32.6831 -81.9608 351° North 181 208 8,000  Level Atlanta Center
Sat 12:35:51 PM 32.7311 -81.9769 344° North 181 208 8,000  Level Atlanta Center
Sat 12:36:51 PM 32.7856 -81.9781 359° North 181 208 8,000  Level Atlanta Center
Sat 12:37:51 PM 32.8336 -81.9919 346° North 181 208 8,000  Level Atlanta Center
Sat 12:38:51 PM 32.8861 -81.9981 354° North 181 208 8,000  Level Atlanta Center
Sat 12:39:51 PM 32.9383 -82.0092 350° North 181 208 8,000  Level Atlanta Center
Sat 12:40:51 PM 32.9867 -82.0206 349° North 181 208 8,000  Level Atlanta Center
Sat 12:41:51 PM 33.0389 -82.0292 352° North 181 208 8,000  Level Atlanta Center
Sat 12:42:51 PM 33.0914 -82.0403 350° North 181 208 8,000  Level Atlanta Center
Sat 12:44:00 PM 33.1472 -82.0512 351° North  Level FlightAware Approximate
Sat 12:51:00 PM 33.4872 -82.1181 351° North  Level FlightAware Approximate
Sat 12:52:00 PM 33.5358 -82.1277 351° North  Level FlightAware Approximate
Sat 12:53:00 PM 33.5843 -82.1373 351° North  Level FlightAware Approximate
Sat 12:54:00 PM 33.6329 -82.1469 351° North  Level FlightAware Approximate
Sat 12:55:00 PM 33.6814 -82.1566 351° North  Level FlightAware Approximate
Sat 12:56:00 PM 33.7300 -82.1662 351° North  Level FlightAware Approximate
Sat 12:57:00 PM 33.7785 -82.1758 351° North  Level FlightAware Approximate
Sat 12:58:00 PM 33.8271 -82.1855 351° North  Level FlightAware Approximate
Sat 12:59:00 PM 33.8757 -82.1952 351° North  Level FlightAware Approximate
Sat 01:00:00 PM 33.9242 -82.2049 351° North  Level FlightAware Approximate
Sat 01:01:00 PM 33.9728 -82.2146 351° North  Level FlightAware Approximate
Sat 01:02:00 PM 34.0213 -82.2243 351° North  Level FlightAware Approximate
Sat 01:03:00 PM 34.0699 -82.2340 351° North  Level FlightAware Approximate
Sat 01:04:00 PM 34.1185 -82.2437 351° North  Level FlightAware Approximate
Sat 01:05:00 PM 34.1670 -82.2534 351° North  Level FlightAware Approximate
Sat 01:06:00 PM 34.2156 -82.2631 351° North  Level FlightAware Approximate
Sat 01:07:00 PM 34.2641 -82.2728 351° North  Level FlightAware Approximate
Sat 01:08:00 PM 34.3127 -82.2825 351° North  Level FlightAware Approximate
Sat 01:09:00 PM 34.3618 -82.2833 North  Level FlightAware Approximate
Sat 01:10:00 PM 34.4101 -82.2942 348° North  Level FlightAware Approximate
Sat 01:11:00 PM 34.4583 -82.3062 348° North  Level FlightAware Approximate
Sat 01:12:00 PM 34.5067 -82.3167 North  Level FlightAware Approximate
Sat 01:13:00 PM 34.5551 -82.3263 348° North  Level FlightAware Approximate
Sat 01:14:00 PM 34.6033 -82.3383 348° North  Level FlightAware Approximate
Sat 01:15:00 PM 34.6515 -82.3503 348° North  Level FlightAware Approximate
Sat 01:16:00 PM 34.6997 -82.3624 348° North  Level FlightAware Approximate
Sat 01:17:00 PM 34.7486 -82.3667 North  Level FlightAware Approximate
Sat 01:18:00 PM 34.7500 -82.3667 North  Level FlightAware Approximate
Sat 01:19:00 PM 34.7583 -82.3764 North  Level Estimated
Sat 01:20:00 PM 34.7583 -82.3764 North  Level Estimated
Sat 01:21:00 PM 34.7583 -82.3764 North  Level Estimated
Sat 01:22:00 PM 34.7583 -82.3764 North  Level Estimated
Sat 01:23:00 PM 34.7583 -82.3764 North  Level Estimated

Login

Don't have an account? Register now (free) for customized features, flight alerts, and more!